sensor_id;sensor_type;location;lat;lon;timestamp;pressure;altitude;pressure_sealevel;temperature;humidity
77212;BME280;66206;0.000;0.000;2023-02-01T00:02:23;98225.44;;;21.63;24.89
77212;BME280;66206;0.000;0.000;2023-02-01T00:04:50;98229.22;;;21.74;24.86
77212;BME280;66206;0.000;0.000;2023-02-01T00:07:17;98227.68;;;21.52;24.95
77212;BME280;66206;0.000;0.000;2023-02-01T00:09:43;98231.15;;;21.77;24.80
77212;BME280;66206;0.000;0.000;2023-02-01T00:12:10;98223.23;;;21.66;24.88
77212;BME280;66206;0.000;0.000;2023-02-01T00:14:36;98222.08;;;21.57;24.98
77212;BME280;66206;0.000;0.000;2023-02-01T00:17:04;98220.68;;;21.57;24.92
77212;BME280;66206;0.000;0.000;2023-02-01T00:19:32;98220.72;;;21.61;24.92
77212;BME280;66206;0.000;0.000;2023-02-01T00:21:59;98220.80;;;21.66;24.86
77212;BME280;66206;0.000;0.000;2023-02-01T00:24:25;98221.93;;;21.45;24.97
77212;BME280;66206;0.000;0.000;2023-02-01T00:26:52;98217.23;;;21.53;24.88
77212;BME280;66206;0.000;0.000;2023-02-01T00:29:19;98216.55;;;21.39;24.98
77212;BME280;66206;0.000;0.000;2023-02-01T00:31:46;98219.20;;;21.58;24.82
77212;BME280;66206;0.000;0.000;2023-02-01T00:34:16;98220.47;;;21.32;24.97
77212;BME280;66206;0.000;0.000;2023-02-01T00:36:43;98216.82;;;21.46;24.92
77212;BME280;66206;0.000;0.000;2023-02-01T00:39:10;98217.40;;;21.39;24.97
77212;BME280;66206;0.000;0.000;2023-02-01T00:41:37;98211.23;;;21.28;24.98
77212;BME280;66206;0.000;0.000;2023-02-01T00:44:03;98214.85;;;21.31;25.02
77212;BME280;66206;0.000;0.000;2023-02-01T00:46:30;98216.15;;;21.26;25.03
77212;BME280;66206;0.000;0.000;2023-02-01T00:48:57;98220.04;;;21.25;25.09
77212;BME280;66206;0.000;0.000;2023-02-01T00:51:24;98215.97;;;21.35;25.02
77212;BME280;66206;0.000;0.000;2023-02-01T00:53:51;98214.61;;;21.28;25.03
77212;BME280;66206;0.000;0.000;2023-02-01T00:56:18;98218.46;;;21.24;25.03
77212;BME280;66206;0.000;0.000;2023-02-01T00:58:44;98214.14;;;21.38;24.94
77212;BME280;66206;0.000;0.000;2023-02-01T01:01:12;98205.54;;;21.18;25.06
77212;BME280;66206;0.000;0.000;2023-02-01T01:03:40;98208.42;;;21.34;24.96
77212;BME280;66206;0.000;0.000;2023-02-01T01:06:07;98201.44;;;21.23;25.03
77212;BME280;66206;0.000;0.000;2023-02-01T01:08:35;98204.33;;;21.07;25.11
77212;BME280;66206;0.000;0.000;2023-02-01T01:11:04;98206.41;;;21.13;25.03
77212;BME280;66206;0.000;0.000;2023-02-01T01:13:30;98205.83;;;21.29;24.92
77212;BME280;66206;0.000;0.000;2023-02-01T01:15:59;98208.06;;;21.19;24.97
77212;BME280;66206;0.000;0.000;2023-02-01T01:18:26;98205.76;;;21.15;25.00
77212;BME280;66206;0.000;0.000;2023-02-01T01:20:53;98204.96;;;21.20;24.99
77212;BME280;66206;0.000;0.000;2023-02-01T01:23:19;98203.29;;;21.08;25.05
77212;BME280;66206;0.000;0.000;2023-02-01T01:25:46;98203.57;;;21.14;24.97
77212;BME280;66206;0.000;0.000;2023-02-01T01:28:13;98206.71;;;21.17;24.92
77212;BME280;66206;0.000;0.000;2023-02-01T01:30:39;98207.46;;;21.31;24.91
77212;BME280;66206;0.000;0.000;2023-02-01T01:33:06;98204.96;;;21.08;24.99
77212;BME280;66206;0.000;0.000;2023-02-01T01:35:33;98200.42;;;20.97;25.07
77212;BME280;66206;0.000;0.000;2023-02-01T01:37:59;98201.14;;;21.27;24.94
77212;BME280;66206;0.000;0.000;2023-02-01T01:40:26;98201.34;;;21.11;25.02
77212;BME280;66206;0.000;0.000;2023-02-01T01:42:53;98198.19;;;21.21;25.00
77212;BME280;66206;0.000;0.000;2023-02-01T01:45:22;98199.29;;;20.96;25.05
77212;BME280;66206;0.000;0.000;2023-02-01T01:47:50;98197.47;;;21.06;25.10
77212;BME280;66206;0.000;0.000;2023-02-01T01:50:21;98196.70;;;21.10;25.05
77212;BME280;66206;0.000;0.000;2023-02-01T01:52:44;98195.06;;;21.05;25.06
77212;BME280;66206;0.000;0.000;2023-02-01T01:55:13;98190.24;;;21.31;24.86
77212;BME280;66206;0.000;0.000;2023-02-01T01:57:41;98189.60;;;21.13;24.95
77212;BME280;66206;0.000;0.000;2023-02-01T02:00:09;98186.30;;;21.08;24.95
77212;BME280;66206;0.000;0.000;2023-02-01T02:02:37;98182.06;;;20.93;25.07
77212;BME280;66206;0.000;0.000;2023-02-01T02:05:05;98187.04;;;21.21;24.96
77212;BME280;66206;0.000;0.000;2023-02-01T02:07:34;98186.81;;;21.06;25.01
77212;BME280;66206;0.000;0.000;2023-02-01T02:10:03;98186.79;;;21.19;24.98
77212;BME280;66206;0.000;0.000;2023-02-01T02:12:30;98185.84;;;21.14;24.96
77212;BME280;66206;0.000;0.000;2023-02-01T02:14:56;98186.66;;;20.95;25.05
77212;BME280;66206;0.000;0.000;2023-02-01T02:17:26;98184.26;;;21.00;24.98
77212;BME280;66206;0.000;0.000;2023-02-01T02:19:59;98174.33;;;20.94;25.12
77212;BME280;66206;0.000;0.000;2023-02-01T02:22:23;98172.64;;;21.11;25.07
77212;BME280;66206;0.000;0.000;2023-02-01T02:24:53;98172.97;;;20.95;25.15
77212;BME280;66206;0.000;0.000;2023-02-01T02:27:17;98167.66;;;21.13;24.98
77212;BME280;66206;0.000;0.000;2023-02-01T02:29:49;98161.09;;;20.99;25.01
77212;BME280;66206;0.000;0.000;2023-02-01T02:32:18;98164.39;;;21.13;25.02
77212;BME280;66206;0.000;0.000;2023-02-01T02:34:38;98163.07;;;20.98;25.10
77212;BME280;66206;0.000;0.000;2023-02-01T02:37:09;98155.66;;;20.86;25.12
77212;BME280;66206;0.000;0.000;2023-02-01T02:39:35;98156.24;;;20.99;25.05
77212;BME280;66206;0.000;0.000;2023-02-01T02:41:59;98157.64;;;20.97;25.02
77212;BME280;66206;0.000;0.000;2023-02-01T02:44:23;98156.20;;;21.14;24.97
77212;BME280;66206;0.000;0.000;2023-02-01T02:46:49;98157.55;;;20.94;25.05
77212;BME280;66206;0.000;0.000;2023-02-01T02:49:18;98161.95;;;20.83;25.11
77212;BME280;66206;0.000;0.000;2023-02-01T02:51:48;98161.22;;;21.07;24.96
77212;BME280;66206;0.000;0.000;2023-02-01T02:54:17;98162.54;;;20.98;24.96
77212;BME280;66206;0.000;0.000;2023-02-01T02:56:45;98160.29;;;20.92;25.07
77212;BME280;66206;0.000;0.000;2023-02-01T02:59:12;98158.23;;;21.08;25.06
77212;BME280;66206;0.000;0.000;2023-02-01T03:01:40;98155.68;;;21.08;24.93
77212;BME280;66206;0.000;0.000;2023-02-01T03:04:07;98152.55;;;20.84;25.02
77212;BME280;66206;0.000;0.000;2023-02-01T03:06:34;98149.13;;;20.93;25.08
77212;BME280;66206;0.000;0.000;2023-02-01T03:09:01;98143.29;;;21.00;25.01
77212;BME280;66206;0.000;0.000;2023-02-01T03:11:31;98139.89;;;20.92;25.06
77212;BME280;66206;0.000;0.000;2023-02-01T03:13:58;98130.57;;;20.97;25.03
77212;BME280;66206;0.000;0.000;2023-02-01T03:16:28;98128.19;;;20.96;24.89
77212;BME280;66206;0.000;0.000;2023-02-01T03:18:52;98139.18;;;20.97;25.02
77212;BME280;66206;0.000;0.000;2023-02-01T03:21:22;98121.52;;;20.81;25.06
77212;BME280;66206;0.000;0.000;2023-02-01T03:23:50;98116.82;;;20.92;24.98
77212;BME280;66206;0.000;0.000;2023-02-01T03:26:18;98118.98;;;20.83;24.97
77212;BME280;66206;0.000;0.000;2023-02-01T03:28:48;98123.01;;;21.01;24.92
77212;BME280;66206;0.000;0.000;2023-02-01T03:31:16;98127.93;;;21.00;24.87
77212;BME280;66206;0.000;0.000;2023-02-01T03:33:42;98134.42;;;21.06;24.96
77212;BME280;66206;0.000;0.000;2023-02-01T03:36:13;98131.37;;;20.93;24.95
77212;BME280;66206;0.000;0.000;2023-02-01T03:38:37;98120.10;;;20.95;24.99
77212;BME280;66206;0.000;0.000;2023-02-01T03:41:08;98111.78;;;21.08;24.85
77212;BME280;66206;0.000;0.000;2023-02-01T03:43:37;98112.59;;;20.79;24.95
77212;BME280;66206;0.000;0.000;2023-02-01T03:46:02;98122.44;;;21.08;24.93
77212;BME280;66206;0.000;0.000;2023-02-01T03:48:32;98116.26;;;21.02;24.94
77212;BME280;66206;0.000;0.000;2023-02-01T03:50:59;98119.77;;;20.85;25.00
77212;BME280;66206;0.000;0.000;2023-02-01T03:53:27;98112.50;;;20.88;25.01
77212;BME280;66206;0.000;0.000;2023-02-01T03:55:55;98108.46;;;21.05;24.89
77212;BME280;66206;0.000;0.000;2023-02-01T03:58:22;98112.66;;;20.85;25.00
77212;BME280;66206;0.000;0.000;2023-02-01T04:00:50;98108.80;;;20.83;25.04
77212;BME280;66206;0.000;0.000;2023-02-01T04:03:17;98106.41;;;20.78;25.00
77212;BME280;66206;0.000;0.000;2023-02-01T04:05:44;98098.29;;;20.84;24.99
77212;BME280;66206;0.000;0.000;2023-02-01T04:08:11;98099.28;;;20.89;25.01
77212;BME280;66206;0.000;0.000;2023-02-01T04:10:37;98104.69;;;20.69;25.23
77212;BME280;66206;0.000;0.000;2023-02-01T04:13:04;98093.86;;;20.60;25.20
77212;BME280;66206;0.000;0.000;2023-02-01T04:15:30;98084.41;;;20.84;24.92
77212;BME280;66206;0.000;0.000;2023-02-01T04:17:57;98081.49;;;21.04;24.79
77212;BME280;66206;0.000;0.000;2023-02-01T04:20:24;98088.72;;;20.66;24.96
77212;BME280;66206;0.000;0.000;2023-02-01T04:22:50;98092.66;;;21.10;24.87
77212;BME280;66206;0.000;0.000;2023-02-01T04:25:17;98088.74;;;20.93;24.77
77212;BME280;66206;0.000;0.000;2023-02-01T04:27:44;98092.49;;;21.00;24.70
77212;BME280;66206;0.000;0.000;2023-02-01T04:30:11;98089.72;;;21.32;24.50
77212;BME280;66206;0.000;0.000;2023-02-01T04:32:38;98086.07;;;21.29;24.55
77212;BME280;66206;0.000;0.000;2023-02-01T04:35:06;98087.53;;;21.27;24.51
77212;BME280;66206;0.000;0.000;2023-02-01T04:37:33;98088.39;;;21.34;24.43
77212;BME280;66206;0.000;0.000;2023-02-01T04:39:59;98086.14;;;21.31;24.45
77212;BME280;66206;0.000;0.000;2023-02-01T04:42:26;98086.77;;;21.27;24.42
77212;BME280;66206;0.000;0.000;2023-02-01T04:44:53;98088.82;;;21.34;24.35
77212;BME280;66206;0.000;0.000;2023-02-01T04:47:19;98083.19;;;21.33;24.44
77212;BME280;66206;0.000;0.000;2023-02-01T04:49:46;98089.17;;;21.46;24.37
77212;BME280;66206;0.000;0.000;2023-02-01T04:52:13;98082.39;;;21.42;24.37
77212;BME280;66206;0.000;0.000;2023-02-01T04:54:39;98083.25;;;21.54;24.35
77212;BME280;66206;0.000;0.000;2023-02-01T04:57:06;98081.98;;;21.46;24.46
77212;BME280;66206;0.000;0.000;2023-02-01T04:59:33;98077.16;;;21.62;24.32
77212;BME280;66206;0.000;0.000;2023-02-01T05:01:59;98077.46;;;21.60;24.22
77212;BME280;66206;0.000;0.000;2023-02-01T05:04:26;98082.90;;;21.72;24.19
77212;BME280;66206;0.000;0.000;2023-02-01T05:06:53;98084.17;;;21.73;24.10
77212;BME280;66206;0.000;0.000;2023-02-01T05:09:19;98085.31;;;21.62;24.24
77212;BME280;66206;0.000;0.000;2023-02-01T05:11:46;98081.98;;;21.76;24.16
77212;BME280;66206;0.000;0.000;2023-02-01T05:14:13;98085.25;;;21.65;24.18
77212;BME280;66206;0.000;0.000;2023-02-01T05:16:39;98080.09;;;21.70;24.20
77212;BME280;66206;0.000;0.000;2023-02-01T05:19:06;98079.70;;;21.55;24.35
77212;BME280;66206;0.000;0.000;2023-02-01T05:21:33;98078.28;;;21.65;24.37
77212;BME280;66206;0.000;0.000;2023-02-01T05:23:59;98084.89;;;21.67;24.28
77212;BME280;66206;0.000;0.000;2023-02-01T05:26:26;98079.71;;;21.85;24.23
77212;BME280;66206;0.000;0.000;2023-02-01T05:28:53;98079.70;;;21.62;24.37
77212;BME280;66206;0.000;0.000;2023-02-01T05:31:20;98087.83;;;21.46;24.54
77212;BME280;66206;0.000;0.000;2023-02-01T05:33:47;98087.74;;;21.55;24.47
77212;BME280;66206;0.000;0.000;2023-02-01T05:36:13;98090.63;;;21.48;24.62
77212;BME280;66206;0.000;0.000;2023-02-01T05:38:40;98087.86;;;21.62;24.46
77212;BME280;66206;0.000;0.000;2023-02-01T05:41:07;98088.59;;;21.30;24.79
77212;BME280;66206;0.000;0.000;2023-02-01T05:43:34;98089.87;;;21.45;24.54
77212;BME280;66206;0.000;0.000;2023-02-01T05:46:01;98099.23;;;21.52;24.64
77212;BME280;66206;0.000;0.000;2023-02-01T05:48:27;98107.53;;;21.20;24.87
77212;BME280;66206;0.000;0.000;2023-02-01T05:50:54;98091.90;;;21.13;24.86
77212;BME280;66206;0.000;0.000;2023-02-01T05:53:21;98085.98;;;21.11;24.90
77212;BME280;66206;0.000;0.000;2023-02-01T05:55:47;98083.06;;;21.01;24.97
77212;BME280;66206;0.000;0.000;2023-02-01T05:58:14;98081.50;;;21.18;24.87
77212;BME280;66206;0.000;0.000;2023-02-01T06:00:41;98083.03;;;21.18;24.97
77212;BME280;66206;0.000;0.000;2023-02-01T06:03:08;98083.22;;;21.20;24.85
77212;BME280;66206;0.000;0.000;2023-02-01T06:05:34;98079.49;;;21.23;24.89
77212;BME280;66206;0.000;0.000;2023-02-01T06:08:01;98072.91;;;21.13;24.87
77212;BME280;66206;0.000;0.000;2023-02-01T06:10:28;98076.83;;;20.98;24.93
77212;BME280;66206;0.000;0.000;2023-02-01T06:12:54;98055.90;;;21.01;25.07
77212;BME280;66206;0.000;0.000;2023-02-01T06:15:21;98060.30;;;20.97;25.09
77212;BME280;66206;0.000;0.000;2023-02-01T06:17:48;98054.97;;;21.16;24.76
77212;BME280;66206;0.000;0.000;2023-02-01T06:20:15;98059.73;;;21.25;24.57
77212;BME280;66206;0.000;0.000;2023-02-01T06:22:42;98060.49;;;21.48;24.23
77212;BME280;66206;0.000;0.000;2023-02-01T06:25:09;98062.81;;;21.49;24.13
77212;BME280;66206;0.000;0.000;2023-02-01T06:27:36;98061.19;;;21.53;24.27
77212;BME280;66206;0.000;0.000;2023-02-01T06:30:02;98061.22;;;21.76;24.17
77212;BME280;66206;0.000;0.000;2023-02-01T06:32:29;98060.65;;;21.68;24.23
77212;BME280;66206;0.000;0.000;2023-02-01T06:34:56;98061.06;;;21.68;24.25
77212;BME280;66206;0.000;0.000;2023-02-01T06:37:23;98060.61;;;21.80;24.22
77212;BME280;66206;0.000;0.000;2023-02-01T06:39:50;98063.66;;;21.81;24.17
77212;BME280;66206;0.000;0.000;2023-02-01T06:42:17;98066.94;;;21.58;24.36
77212;BME280;66206;0.000;0.000;2023-02-01T06:44:43;98065.48;;;21.63;24.31
77212;BME280;66206;0.000;0.000;2023-02-01T06:47:10;98065.13;;;21.64;24.35
77212;BME280;66206;0.000;0.000;2023-02-01T06:49:37;98063.49;;;21.57;24.33
77212;BME280;66206;0.000;0.000;2023-02-01T06:52:03;98060.58;;;21.54;24.42
77212;BME280;66206;0.000;0.000;2023-02-01T06:54:30;98052.69;;;21.61;24.38
77212;BME280;66206;0.000;0.000;2023-02-01T06:56:57;98053.59;;;21.66;24.42
77212;BME280;66206;0.000;0.000;2023-02-01T06:59:23;98058.90;;;21.49;24.54
77212;BME280;66206;0.000;0.000;2023-02-01T07:01:50;98055.51;;;21.42;24.61
77212;BME280;66206;0.000;0.000;2023-02-01T07:04:17;98067.90;;;21.41;24.60
77212;BME280;66206;0.000;0.000;2023-02-01T07:06:43;98063.23;;;21.40;24.67
77212;BME280;66206;0.000;0.000;2023-02-01T07:09:10;98067.83;;;21.23;24.74
77212;BME280;66206;0.000;0.000;2023-02-01T07:11:37;98071.69;;;21.32;24.71
77212;BME280;66206;0.000;0.000;2023-02-01T07:14:03;98071.87;;;21.29;24.80
77212;BME280;66206;0.000;0.000;2023-02-01T07:16:30;98068.19;;;21.39;24.72
77212;BME280;66206;0.000;0.000;2023-02-01T07:18:57;98072.10;;;21.37;24.62
77212;BME280;66206;0.000;0.000;2023-02-01T07:21:23;98069.52;;;20.94;24.98
77212;BME280;66206;0.000;0.000;2023-02-01T07:23:50;98072.75;;;20.80;25.11
77212;BME280;66206;0.000;0.000;2023-02-01T07:26:17;98071.71;;;21.02;25.05
77212;BME280;66206;0.000;0.000;2023-02-01T07:28:43;98064.68;;;21.28;24.92
77212;BME280;66206;0.000;0.000;2023-02-01T07:31:11;98072.13;;;21.39;26.35
77212;BME280;66206;0.000;0.000;2023-02-01T07:33:38;98078.26;;;21.32;26.12
77212;BME280;66206;0.000;0.000;2023-02-01T07:36:06;98071.18;;;21.20;25.90
77212;BME280;66206;0.000;0.000;2023-02-01T07:38:33;98072.92;;;21.35;25.92
77212;BME280;66206;0.000;0.000;2023-02-01T07:41:00;98076.43;;;21.21;25.87
77212;BME280;66206;0.000;0.000;2023-02-01T07:43:27;98071.80;;;21.43;25.86
77212;BME280;66206;0.000;0.000;2023-02-01T07:45:54;98069.92;;;21.53;25.85
77212;BME280;66206;0.000;0.000;2023-02-01T07:48:21;98065.23;;;21.31;25.93
77212;BME280;66206;0.000;0.000;2023-02-01T07:50:48;98066.41;;;21.37;25.80
77212;BME280;66206;0.000;0.000;2023-02-01T07:53:15;98068.53;;;21.34;25.83
77212;BME280;66206;0.000;0.000;2023-02-01T07:55:42;98067.32;;;21.34;25.91
77212;BME280;66206;0.000;0.000;2023-02-01T07:58:08;98069.33;;;21.50;25.77
77212;BME280;66206;0.000;0.000;2023-02-01T08:00:35;98073.54;;;21.42;26.04
77212;BME280;66206;0.000;0.000;2023-02-01T08:03:03;98066.76;;;22.02;25.98
77212;BME280;66206;0.000;0.000;2023-02-01T08:05:30;98051.86;;;21.81;25.92
77212;BME280;66206;0.000;0.000;2023-02-01T08:07:56;98043.37;;;21.72;25.53
77212;BME280;66206;0.000;0.000;2023-02-01T08:10:23;98037.12;;;21.96;25.12
77212;BME280;66206;0.000;0.000;2023-02-01T08:12:50;98050.40;;;21.87;25.36
77212;BME280;66206;0.000;0.000;2023-02-01T08:15:16;98054.47;;;22.11;25.12
77212;BME280;66206;0.000;0.000;2023-02-01T08:17:46;98049.70;;;21.78;25.13
77212;BME280;66206;0.000;0.000;2023-02-01T08:20:12;98060.99;;;21.59;25.24
77212;BME280;66206;0.000;0.000;2023-02-01T08:22:39;98052.18;;;21.81;25.13
77212;BME280;66206;0.000;0.000;2023-02-01T08:25:06;98051.38;;;21.99;24.66
77212;BME280;66206;0.000;0.000;2023-02-01T08:27:33;98045.49;;;22.13;24.59
77212;BME280;66206;0.000;0.000;2023-02-01T08:30:00;98059.99;;;22.22;24.48
77212;BME280;66206;0.000;0.000;2023-02-01T08:32:27;98063.64;;;22.27;24.25
77212;BME280;66206;0.000;0.000;2023-02-01T08:34:53;98071.18;;;22.47;24.98
77212;BME280;66206;0.000;0.000;2023-02-01T08:37:20;98079.24;;;22.58;24.32
77212;BME280;66206;0.000;0.000;2023-02-01T08:39:47;98092.64;;;22.64;24.22
77212;BME280;66206;0.000;0.000;2023-02-01T08:42:13;98089.41;;;22.63;24.35
77212;BME280;66206;0.000;0.000;2023-02-01T08:44:40;98082.92;;;22.68;24.33
77212;BME280;66206;0.000;0.000;2023-02-01T08:47:07;98096.51;;;22.75;24.27
77212;BME280;66206;0.000;0.000;2023-02-01T08:49:33;98100.02;;;22.76;24.26
77212;BME280;66206;0.000;0.000;2023-02-01T08:52:00;98102.41;;;22.89;24.19
77212;BME280;66206;0.000;0.000;2023-02-01T08:54:27;98094.33;;;22.86;24.23
77212;BME280;66206;0.000;0.000;2023-02-01T08:56:53;98092.74;;;22.81;24.08
77212;BME280;66206;0.000;0.000;2023-02-01T08:59:20;98086.27;;;23.02;24.14
77212;BME280;66206;0.000;0.000;2023-02-01T09:01:46;98081.23;;;22.81;24.19
77212;BME280;66206;0.000;0.000;2023-02-01T09:04:13;98084.26;;;22.89;24.31
77212;BME280;66206;0.000;0.000;2023-02-01T09:06:40;98080.46;;;22.66;24.37
77212;BME280;66206;0.000;0.000;2023-02-01T09:09:07;98086.90;;;22.68;24.20
77212;BME280;66206;0.000;0.000;2023-02-01T09:11:33;98084.48;;;22.95;23.88
77212;BME280;66206;0.000;0.000;2023-02-01T09:14:00;98088.67;;;23.04;23.81
77212;BME280;66206;0.000;0.000;2023-02-01T09:16:26;98089.52;;;23.08;23.86
77212;BME280;66206;0.000;0.000;2023-02-01T09:18:53;98091.71;;;23.14;23.84
77212;BME280;66206;0.000;0.000;2023-02-01T09:21:20;98106.46;;;23.28;23.77
77212;BME280;66206;0.000;0.000;2023-02-01T09:23:47;98118.02;;;23.12;23.66
77212;BME280;66206;0.000;0.000;2023-02-01T09:26:14;98123.91;;;23.06;23.77
77212;BME280;66206;0.000;0.000;2023-02-01T09:28:41;98119.94;;;23.20;23.69
77212;BME280;66206;0.000;0.000;2023-02-01T09:31:07;98135.14;;;23.14;23.67
77212;BME280;66206;0.000;0.000;2023-02-01T09:33:34;98137.53;;;23.30;23.60
77212;BME280;66206;0.000;0.000;2023-02-01T09:36:02;98144.87;;;23.29;23.58
77212;BME280;66206;0.000;0.000;2023-02-01T09:38:29;98165.05;;;23.32;23.46
77212;BME280;66206;0.000;0.000;2023-02-01T09:40:57;98149.26;;;23.20;23.37
77212;BME280;66206;0.000;0.000;2023-02-01T09:43:28;98137.35;;;23.37;23.38
77212;BME280;66206;0.000;0.000;2023-02-01T09:45:52;98154.09;;;23.46;23.29
77212;BME280;66206;0.000;0.000;2023-02-01T09:48:20;98159.29;;;23.45;23.35
77212;BME280;66206;0.000;0.000;2023-02-01T09:50:44;98165.82;;;23.35;23.41
77212;BME280;66206;0.000;0.000;2023-02-01T09:53:12;98172.07;;;23.60;23.33
77212;BME280;66206;0.000;0.000;2023-02-01T09:55:42;98179.17;;;23.87;23.03
77212;BME280;66206;0.000;0.000;2023-02-01T09:58:12;98178.27;;;23.78;23.14
77212;BME280;66206;0.000;0.000;2023-02-01T10:00:36;98180.30;;;23.48;23.37
77212;BME280;66206;0.000;0.000;2023-02-01T10:03:04;98186.36;;;23.38;23.49
77212;BME280;66206;0.000;0.000;2023-02-01T10:05:37;98191.89;;;23.53;23.33
77212;BME280;66206;0.000;0.000;2023-02-01T10:07:58;98189.96;;;23.43;23.36
77212;BME280;66206;0.000;0.000;2023-02-01T10:10:25;98188.31;;;23.33;23.24
77212;BME280;66206;0.000;0.000;2023-02-01T10:12:57;98191.88;;;23.61;23.19
77212;BME280;66206;0.000;0.000;2023-02-01T10:15:21;98190.11;;;23.32;23.24
77212;BME280;66206;0.000;0.000;2023-02-01T10:17:49;98188.14;;;23.11;23.73
77212;BME280;66206;0.000;0.000;2023-02-01T10:20:15;98185.10;;;23.03;23.55
77212;BME280;66206;0.000;0.000;2023-02-01T10:22:40;98180.04;;;23.33;23.43
77212;BME280;66206;0.000;0.000;2023-02-01T10:25:08;98182.48;;;23.26;23.36
77212;BME280;66206;0.000;0.000;2023-02-01T10:27:34;98179.15;;;23.15;23.61
77212;BME280;66206;0.000;0.000;2023-02-01T10:30:04;98172.86;;;23.11;23.73
77212;BME280;66206;0.000;0.000;2023-02-01T10:32:32;98170.95;;;23.13;23.86
77212;BME280;66206;0.000;0.000;2023-02-01T10:35:00;98170.17;;;23.07;23.91
77212;BME280;66206;0.000;0.000;2023-02-01T10:37:28;98166.26;;;22.80;24.00
77212;BME280;66206;0.000;0.000;2023-02-01T10:39:55;98167.36;;;23.18;23.95
77212;BME280;66206;0.000;0.000;2023-02-01T10:42:24;98160.38;;;23.05;23.81
77212;BME280;66206;0.000;0.000;2023-02-01T10:44:51;98156.27;;;23.28;23.78
77212;BME280;66206;0.000;0.000;2023-02-01T10:47:19;98157.99;;;23.20;23.74
77212;BME280;66206;0.000;0.000;2023-02-01T10:49:48;98161.66;;;23.22;23.85
77212;BME280;66206;0.000;0.000;2023-02-01T10:52:12;98166.51;;;23.13;23.99
77212;BME280;66206;0.000;0.000;2023-02-01T10:54:39;98178.87;;;22.67;24.22
77212;BME280;66206;0.000;0.000;2023-02-01T10:57:07;98169.02;;;22.97;24.02
77212;BME280;66206;0.000;0.000;2023-02-01T10:59:34;98169.96;;;23.14;23.88
77212;BME280;66206;0.000;0.000;2023-02-01T11:02:01;98173.66;;;23.23;23.78
77212;BME280;66206;0.000;0.000;2023-02-01T11:04:30;98166.54;;;23.32;23.77
77212;BME280;66206;0.000;0.000;2023-02-01T11:06:55;98160.63;;;22.96;23.94
77212;BME280;66206;0.000;0.000;2023-02-01T11:09:20;98153.03;;;23.11;23.84
77212;BME280;66206;0.000;0.000;2023-02-01T11:11:56;98157.71;;;23.31;23.60
77212;BME280;66206;0.000;0.000;2023-02-01T11:14:14;98159.97;;;23.41;23.54
77212;BME280;66206;0.000;0.000;2023-02-01T11:16:41;98157.22;;;23.43;23.53
77212;BME280;66206;0.000;0.000;2023-02-01T11:19:07;98144.18;;;23.19;23.54
77212;BME280;66206;0.000;0.000;2023-02-01T11:21:35;98142.52;;;23.29;23.61
77212;BME280;66206;0.000;0.000;2023-02-01T11:24:02;98139.81;;;23.32;23.49
77212;BME280;66206;0.000;0.000;2023-02-01T11:26:30;98130.73;;;23.24;23.49
77212;BME280;66206;0.000;0.000;2023-02-01T11:28:58;98123.00;;;23.59;23.26
77212;BME280;66206;0.000;0.000;2023-02-01T11:31:27;98117.85;;;23.29;23.42
77212;BME280;66206;0.000;0.000;2023-02-01T11:33:55;98120.74;;;23.43;23.33
77212;BME280;66206;0.000;0.000;2023-02-01T11:36:24;98125.47;;;23.51;23.19
77212;BME280;66206;0.000;0.000;2023-02-01T11:38:53;98126.46;;;23.50;23.33
77212;BME280;66206;0.000;0.000;2023-02-01T11:41:21;98127.68;;;23.61;23.24
77212;BME280;66206;0.000;0.000;2023-02-01T11:43:50;98125.72;;;23.35;23.46
77212;BME280;66206;0.000;0.000;2023-02-01T11:46:18;98124.37;;;23.14;23.50
77212;BME280;66206;0.000;0.000;2023-02-01T11:48:45;98120.67;;;23.40;23.36
77212;BME280;66206;0.000;0.000;2023-02-01T11:51:16;98118.09;;;23.40;23.34
77212;BME280;66206;0.000;0.000;2023-02-01T11:53:43;98111.69;;;23.42;23.40
77212;BME280;66206;0.000;0.000;2023-02-01T11:56:10;98105.74;;;23.38;23.46
77212;BME280;66206;0.000;0.000;2023-02-01T11:58:36;98114.22;;;23.29;23.52
77212;BME280;66206;0.000;0.000;2023-02-01T12:01:04;98111.88;;;23.25;23.61
77212;BME280;66206;0.000;0.000;2023-02-01T12:03:35;98110.85;;;23.41;23.51
77212;BME280;66206;0.000;0.000;2023-02-01T12:05:57;98110.57;;;23.26;23.55
77212;BME280;66206;0.000;0.000;2023-02-01T12:08:30;98109.81;;;23.39;23.41
77212;BME280;66206;0.000;0.000;2023-02-01T12:10:58;98102.83;;;23.15;23.72
77212;BME280;66206;0.000;0.000;2023-02-01T12:13:26;98104.21;;;23.29;23.60
77212;BME280;66206;0.000;0.000;2023-02-01T12:15:54;98112.96;;;23.07;23.93
77212;BME280;66206;0.000;0.000;2023-02-01T12:18:25;98113.08;;;23.22;23.90
77212;BME280;66206;0.000;0.000;2023-02-01T12:20:52;98111.43;;;23.25;24.22
77212;BME280;66206;0.000;0.000;2023-02-01T12:23:16;98101.06;;;23.11;23.58
77212;BME280;66206;0.000;0.000;2023-02-01T12:25:43;98099.15;;;23.27;23.46
77212;BME280;66206;0.000;0.000;2023-02-01T12:28:17;98085.09;;;23.46;23.47
77212;BME280;66206;0.000;0.000;2023-02-01T12:30:56;98086.40;;;23.34;23.90
77212;BME280;66206;0.000;0.000;2023-02-01T12:33:10;98083.19;;;23.32;24.09
77212;BME280;66206;0.000;0.000;2023-02-01T12:35:41;98076.28;;;23.10;23.91
77212;BME280;66206;0.000;0.000;2023-02-01T12:38:10;98076.10;;;22.99;24.14
77212;BME280;66206;0.000;0.000;2023-02-01T12:40:37;98063.74;;;23.12;24.17
77212;BME280;66206;0.000;0.000;2023-02-01T12:43:04;98063.92;;;23.17;24.05
77212;BME280;66206;0.000;0.000;2023-02-01T12:45:33;98064.69;;;23.11;24.09
77212;BME280;66206;0.000;0.000;2023-02-01T12:48:03;98067.36;;;23.14;24.05
77212;BME280;66206;0.000;0.000;2023-02-01T12:50:32;98060.39;;;23.20;24.17
77212;BME280;66206;0.000;0.000;2023-02-01T12:52:57;98059.19;;;23.20;23.98
77212;BME280;66206;0.000;0.000;2023-02-01T12:55:27;98065.26;;;23.38;23.93
77212;BME280;66206;0.000;0.000;2023-02-01T12:57:52;98057.87;;;23.44;23.86
77212;BME280;66206;0.000;0.000;2023-02-01T13:00:22;98055.68;;;23.47;23.85
77212;BME280;66206;0.000;0.000;2023-02-01T13:02:48;98055.13;;;23.22;24.21
77212;BME280;66206;0.000;0.000;2023-02-01T13:05:12;98051.39;;;23.27;24.04
77212;BME280;66206;0.000;0.000;2023-02-01T13:07:42;98060.57;;;23.38;23.94
77212;BME280;66206;0.000;0.000;2023-02-01T13:10:12;98054.64;;;23.54;23.74